Time;durP1;ratioP1;P1;durP2;ratioP2;P2;SDS_P1;SDS_P2;PMS_P1;PMS_P2;Temp;Humidity;BMP_temperature;BMP_pressure;BME280_temperature;BME280_humidity;BME280_pressure;Samples;Min_cycle;Max_cycle;Signal;HPM_P1;HPM_P2
2023/02/15 00:01:47;;;;;;;;;93.67;86.33;;;;;8.47;67.99;101836.63;4955103;28;45686;-70
2023/02/15 00:04:14;;;;;;;;;85.67;83.00;;;;;8.42;68.40;101835.81;4955320;28;45740;-71
2023/02/15 00:06:40;;;;;;;;;82.00;76.00;;;;;8.41;68.21;101835.81;4957086;28;45640;-72
2023/02/15 00:09:05;;;;;;;;;86.00;77.67;;;;;8.39;68.10;101835.84;4957603;28;45511;-71
2023/02/15 00:11:40;;;;;;;;;95.67;91.67;;;;;8.34;68.40;101827.16;4957453;28;45350;-68
2023/02/15 00:14:11;;;;;;;;;93.67;86.67;;;;;8.32;68.51;101826.31;4956715;28;45393;-69
2023/02/15 00:16:38;;;;;;;;;79.33;68.33;;;;;8.32;68.60;101832.41;4956839;28;45190;-69
2023/02/15 00:19:05;;;;;;;;;91.33;89.33;;;;;8.31;68.39;101824.56;4956999;28;47169;-67
2023/02/15 00:21:33;;;;;;;;;96.00;87.33;;;;;8.20;69.00;101811.56;4955738;28;45327;-70
2023/02/15 00:24:00;;;;;;;;;88.00;84.00;;;;;8.23;69.10;101814.16;4954507;28;45295;-69
2023/02/15 00:26:27;;;;;;;;;91.00;86.00;;;;;8.17;68.81;101804.63;4956215;28;45196;-71
2023/02/15 00:28:53;;;;;;;;;93.67;89.33;;;;;8.22;68.88;101811.56;4955773;28;46416;-72
2023/02/15 00:31:19;;;;;;;;;92.00;88.00;;;;;8.16;68.92;101799.38;4955731;28;45410;-72
2023/02/15 00:33:44;;;;;;;;;102.67;93.00;;;;;8.15;69.21;101800.25;4954762;28;45303;-73
2023/02/15 00:36:10;;;;;;;;;96.33;92.00;;;;;8.14;69.33;101798.53;4955918;28;45573;-74
2023/02/15 00:38:36;;;;;;;;;94.67;86.33;;;;;8.14;69.17;101801.16;4955199;28;46393;-74
2023/02/15 00:41:04;;;;;;;;;96.67;86.67;;;;;8.10;69.45;101788.97;4955352;28;45434;-74
2023/02/15 00:43:31;;;;;;;;;93.33;91.67;;;;;7.90;69.22;101769.06;4954452;28;45402;-75
2023/02/15 00:45:57;;;;;;;;;96.33;87.00;;;;;8.11;69.56;101799.44;4956819;28;45355;-76
2023/02/15 00:48:22;;;;;;;;;88.33;82.67;;;;;8.09;69.93;101795.09;4955499;28;46374;-74
2023/02/15 00:50:58;;;;;;;;;96.67;91.33;;;;;8.08;69.80;101788.09;4956071;28;45321;-74
2023/02/15 00:53:25;;;;;;;;;92.33;88.00;;;;;8.02;69.98;101781.19;4955998;28;45420;-74
2023/02/15 00:55:51;;;;;;;;;93.33;91.00;;;;;7.67;70.04;101727.38;4955617;28;45495;-75
2023/02/15 00:58:17;;;;;;;;;89.00;83.67;;;;;8.06;70.01;101790.75;4955620;28;46143;-75
2023/02/15 01:00:45;;;;;;;;;87.33;82.67;;;;;8.06;69.80;101800.34;4955348;28;45265;-72
2023/02/15 01:03:10;;;;;;;;;83.67;80.33;;;;;8.04;70.27;101795.16;4955150;28;45331;-74
2023/02/15 01:05:36;;;;;;;;;86.00;80.00;;;;;8.03;70.25;101791.63;4960226;28;45503;-75
2023/02/15 01:08:01;;;;;;;;;82.67;77.67;;;;;8.00;70.19;101786.44;4956846;28;45332;-70
2023/02/15 01:10:27;;;;;;;;;81.00;69.33;;;;;7.92;69.89;101774.28;4955526;28;45293;-72
2023/02/15 01:12:53;;;;;;;;;81.00;73.67;;;;;8.00;69.94;101782.97;4955613;28;45303;-73
2023/02/15 01:15:19;;;;;;;;;85.00;83.67;;;;;7.98;70.28;101790.81;4955753;28;45358;-76
2023/02/15 01:17:50;;;;;;;;;82.00;77.33;;;;;7.89;70.15;101781.28;4955381;28;45435;-74
2023/02/15 01:20:17;;;;;;;;;85.33;79.00;;;;;7.92;69.84;101783.03;4955715;28;45244;-74
2023/02/15 01:22:42;;;;;;;;;84.00;77.33;;;;;7.93;70.50;101784.75;4955272;28;45300;-75
2023/02/15 01:25:07;;;;;;;;;86.33;79.33;;;;;7.94;70.33;101783.88;4955922;28;45486;-72
2023/02/15 01:27:33;;;;;;;;;82.67;73.67;;;;;7.95;70.90;101782.09;4954175;28;47968;-72
2023/02/15 01:29:58;;;;;;;;;84.00;77.00;;;;;7.93;70.73;101782.13;4957295;28;45373;-72
2023/02/15 01:32:23;;;;;;;;;79.67;74.67;;;;;7.93;70.23;101778.63;4956909;28;45323;-72
2023/02/15 01:34:49;;;;;;;;;86.00;77.67;;;;;7.93;70.77;101778.63;4956294;28;45358;-71
2023/02/15 01:37:14;;;;;;;;;82.00;76.67;;;;;7.90;70.24;101776.94;4955388;28;46219;-70
2023/02/15 01:39:39;;;;;;;;;82.00;74.33;;;;;7.91;70.74;101781.28;4956667;28;45431;-70
2023/02/15 01:42:05;;;;;;;;;82.00;75.33;;;;;7.89;70.76;101773.41;4955737;28;52010;-70
2023/02/15 01:44:48;;;;;;;;;79.33;68.00;;;;;7.89;69.96;101775.19;4955041;28;46888;-74
2023/02/15 01:48:06;;;;;;;;;85.67;74.33;;;;;7.87;70.38;101772.56;4954698;28;45358;-70
2023/02/15 01:50:37;;;;;;;;;81.67;70.33;;;;;7.84;69.78;101769.97;4958613;28;45347;-69
2023/02/15 01:53:14;;;;;;;;;79.33;70.67;;;;;7.87;70.09;101782.19;4954818;28;45551;-69
2023/02/15 01:55:46;;;;;;;;;84.33;74.67;;;;;7.87;69.83;101771.72;4954909;28;45389;-67
2023/02/15 01:58:12;;;;;;;;;83.00;72.33;;;;;7.85;69.60;101771.72;4953257;28;48339;-68
2023/02/15 02:00:38;;;;;;;;;77.00;67.33;;;;;7.83;69.46;101770.00;4955006;28;45419;-70
2023/02/15 02:03:04;;;;;;;;;80.00;69.67;;;;;7.84;69.44;101771.75;4954534;28;45338;-71
2023/02/15 02:05:30;;;;;;;;;79.67;68.33;;;;;7.80;69.46;101762.19;4958290;28;45382;-71
2023/02/15 02:07:59;;;;;;;;;79.00;66.67;;;;;7.71;69.62;101750.91;4954978;28;45397;-76
2023/02/15 02:10:25;;;;;;;;;81.67;69.33;;;;;7.75;69.39;101757.84;4954420;28;45277;-75
2023/02/15 02:12:55;;;;;;;;;78.00;65.33;;;;;7.77;69.29;101759.59;4955087;28;45297;-72
2023/02/15 02:15:27;;;;;;;;;80.67;70.67;;;;;7.72;69.09;101752.66;4954944;28;45261;-73
2023/02/15 02:18:06;;;;;;;;;76.67;65.33;;;;;7.69;69.28;101746.56;4955168;28;46073;-75
2023/02/15 02:20:37;;;;;;;;;78.67;68.00;;;;;7.71;69.03;101755.25;4954968;28;45320;-75
2023/02/15 02:23:20;;;;;;;;;72.00;61.00;;;;;7.69;69.34;101763.16;4954346;28;45423;-75
2023/02/15 02:26:29;;;;;;;;;75.67;62.00;;;;;7.67;68.84;101762.31;4954753;28;45437;-74
2023/02/15 02:29:17;;;;;;;;;77.67;65.00;;;;;7.64;69.30;101764.06;4954717;28;45463;-71
2023/02/15 02:32:01;;;;;;;;;77.67;67.00;;;;;7.63;68.90;101757.97;4954502;28;45232;-74
2023/02/15 02:34:32;;;;;;;;;78.00;65.33;;;;;7.53;69.46;101738.00;4954273;28;45520;-75
2023/02/15 02:37:34;;;;;;;;;80.00;69.67;;;;;7.57;69.63;101744.94;4955628;28;45319;-75
2023/02/15 02:40:29;;;;;;;;;78.00;67.00;;;;;7.55;69.67;101746.69;4954376;28;46482;-73
2023/02/15 02:43:10;;;;;;;;;78.67;64.33;;;;;7.53;70.02;101751.09;4954699;28;45344;-71
2023/02/15 02:45:57;;;;;;;;;79.00;66.33;;;;;7.47;69.59;101731.03;4954011;28;45351;-73
2023/02/15 02:48:26;;;;;;;;;78.00;65.67;;;;;7.49;69.97;101738.91;4954955;28;45372;-73
2023/02/15 02:50:52;;;;;;;;;77.67;64.33;;;;;7.43;69.34;101738.06;4954477;28;46274;-69
2023/02/15 02:53:17;;;;;;;;;80.33;68.00;;;;;7.38;69.49;101724.13;4954078;28;45294;-69
2023/02/15 02:55:52;;;;;;;;;80.33;67.00;;;;;7.42;69.15;101733.72;4953193;28;45453;-75
2023/02/15 02:58:32;;;;;;;;;82.67;68.67;;;;;7.42;69.29;101732.84;4955436;28;45675;-75
2023/02/15 03:01:17;;;;;;;;;79.33;66.67;;;;;7.40;69.79;101735.44;4955048;28;46162;-69
2023/02/15 03:03:51;;;;;;;;;78.67;66.33;;;;;7.38;69.73;101726.75;4954858;28;45356;-75
2023/02/15 03:06:23;;;;;;;;;76.67;65.00;;;;;7.32;69.56;101732.03;4953428;28;45435;-74
2023/02/15 03:08:54;;;;;;;;;83.00;69.33;;;;;7.36;69.64;101732.88;4954140;28;45313;-71
2023/02/15 03:11:19;;;;;;;;;80.33;69.00;;;;;7.24;69.73;101716.41;4953820;28;46472;-70
2023/02/15 03:13:48;;;;;;;;;81.67;68.67;;;;;7.31;70.50;101736.41;4953376;28;51297;-74
2023/02/15 03:16:26;;;;;;;;;81.33;70.33;;;;;7.21;69.62;101726.91;4953774;28;45461;-72
2023/02/15 03:19:00;;;;;;;;;81.33;73.33;;;;;7.27;70.07;101742.56;4954278;28;45454;-74
2023/02/15 03:21:39;;;;;;;;;82.00;72.33;;;;;7.26;70.32;101737.31;4952577;28;46290;-73
2023/02/15 03:24:12;;;;;;;;;79.33;67.33;;;;;7.23;69.98;101739.94;4953815;28;45302;-72
2023/02/15 03:26:39;;;;;;;;;80.67;66.00;;;;;7.21;69.63;101739.09;4956519;28;45347;-74
2023/02/15 03:29:07;;;;;;;;;77.00;65.33;;;;;7.19;69.41;101733.00;4956833;28;45560;-74
2023/02/15 03:31:37;;;;;;;;;78.67;66.33;;;;;7.16;69.88;101729.53;4973498;28;46094;-73
2023/02/15 03:34:06;;;;;;;;;81.00;67.00;;;;;7.15;70.65;101733.03;4976652;28;45273;-74
2023/02/15 03:36:46;;;;;;;;;83.67;70.67;;;;;7.12;70.31;101725.22;4977968;28;45457;-71
2023/02/15 03:39:31;;;;;;;;;80.00;65.00;;;;;7.08;71.12;101726.09;4979821;28;45372;-71
2023/02/15 03:42:17;;;;;;;;;81.00;70.00;;;;;7.06;70.20;101720.03;4976573;28;46381;-74
2023/02/15 03:45:14;;;;;;;;;83.33;71.33;;;;;7.03;70.30;101727.88;4974223;28;45515;-70
2023/02/15 03:47:44;;;;;;;;;80.67;68.33;;;;;6.99;70.52;101719.22;4975621;28;45450;-75
2023/02/15 03:53:11;;;;;;;;;77.67;66.33;;;;;6.98;70.77;101729.66;4976625;28;45385;-74
2023/02/15 03:55:36;;;;;;;;;81.67;72.33;;;;;6.95;71.39;101724.47;4975318;28;45500;-73
2023/02/15 04:04:01;;;;;;;;;79.00;67.67;;;;;6.87;70.81;101730.59;4975132;28;45872;-72
2023/02/15 04:06:26;;;;;;;;;79.33;69.00;;;;;6.86;70.87;101723.63;4975840;28;45224;-74
2023/02/15 04:11:35;;;;;;;;;82.33;73.00;;;;;6.82;71.01;101728.88;4975961;28;45256;-72
2023/02/15 04:16:02;;;;;;;;;82.67;68.33;;;;;6.81;70.86;101725.41;4975463;28;46017;-71
2023/02/15 04:16:46;;;;;;;;;83.00;72.00;;;;;6.77;71.42;101728.03;4975166;28;45327;-73
2023/02/15 04:27:23;;;;;;;;;81.00;71.33;;;;;6.67;71.72;101733.31;4977659;28;45481;-74
2023/02/15 04:29:49;;;;;;;;;82.33;70.00;;;;;6.64;71.74;101728.13;4973696;28;51723;-73
2023/02/15 04:32:15;;;;;;;;;84.33;72.00;;;;;6.64;72.17;101724.66;4975646;28;45323;-75
2023/02/15 04:34:40;;;;;;;;;83.67;71.00;;;;;6.62;71.46;101726.41;4974054;28;63137;-73
2023/02/15 04:37:05;;;;;;;;;81.33;70.00;;;;;6.61;71.15;101722.06;4974294;28;58866;-72
2023/02/15 04:39:31;;;;;;;;;84.00;75.67;;;;;6.61;71.63;101729.91;4977088;28;45391;-72
2023/02/15 04:41:57;;;;;;;;;83.00;72.00;;;;;6.50;71.17;101704.69;4975412;28;45451;-73
2023/02/15 04:44:22;;;;;;;;;84.33;72.33;;;;;6.56;71.70;101722.94;4974873;28;45302;-74
2023/02/15 04:46:48;;;;;;;;;86.00;74.67;;;;;6.56;72.18;101725.56;4973630;28;45230;-75
2023/02/15 04:49:13;;;;;;;;;86.00;76.67;;;;;6.50;71.80;101725.59;4974778;28;45526;-68
2023/02/15 04:51:38;;;;;;;;;86.00;80.00;;;;;6.53;71.43;101725.56;4973738;28;45389;-70
2023/02/15 04:54:04;;;;;;;;;87.33;77.33;;;;;6.52;72.29;101725.56;4974839;28;45446;-72
2023/02/15 04:56:29;;;;;;;;;86.33;78.67;;;;;6.46;72.76;101716.03;4974913;28;45318;-70
2023/02/15 04:58:55;;;;;;;;;86.00;76.00;;;;;6.50;72.49;101715.13;4974792;28;45472;-70
2023/02/15 05:01:20;;;;;;;;;85.67;74.33;;;;;6.19;72.42;101659.53;4974915;28;45512;-71
2023/02/15 05:03:46;;;;;;;;;84.00;76.33;;;;;6.49;72.60;101710.78;4974285;28;46341;-68
2023/02/15 05:06:11;;;;;;;;;87.67;76.00;;;;;6.45;71.95;101711.69;4974027;28;57532;-66
2023/02/15 05:08:37;;;;;;;;;87.67;77.33;;;;;6.43;72.20;101713.44;4973443;28;45269;-69
2023/02/15 05:11:02;;;;;;;;;86.00;78.00;;;;;6.39;72.33;101711.69;4975443;28;45481;-72
2023/02/15 05:13:27;;;;;;;;;85.00;78.33;;;;;6.41;71.70;101720.41;4975323;28;45447;-72
2023/02/15 05:15:53;;;;;;;;;82.33;74.33;;;;;6.32;72.90;101702.13;4974063;28;54996;-73
2023/02/15 05:18:20;;;;;;;;;84.67;73.33;;;;;6.39;72.49;101719.53;4974885;28;45235;-73
2023/02/15 05:20:46;;;;;;;;;93.00;81.33;;;;;6.38;72.29;101710.81;4975287;28;45181;-75
2023/02/15 05:23:12;;;;;;;;;85.67;76.00;;;;;6.35;72.63;101716.06;4974776;28;45515;-75
2023/02/15 05:28:23;;;;;;;;;86.33;75.67;;;;;6.33;73.06;101709.09;4976225;28;45367;-73
2023/02/15 05:30:50;;;;;;;;;85.00;74.00;;;;;6.33;72.50;101717.81;4974737;28;45450;-72
2023/02/15 05:33:16;;;;;;;;;86.67;77.67;;;;;6.28;72.38;101712.59;4974402;28;46355;-70
2023/02/15 05:35:42;;;;;;;;;88.00;75.33;;;;;6.28;73.16;101712.59;4973222;28;45451;-73
2023/02/15 05:38:07;;;;;;;;;85.67;80.33;;;;;6.28;72.97;101714.34;4974909;28;45396;-73
2023/02/15 05:40:33;;;;;;;;;87.33;84.00;;;;;6.24;72.51;101707.41;4976050;28;45410;-72
2023/02/15 05:42:58;;;;;;;;;87.67;79.00;;;;;6.25;72.61;101719.59;4974794;28;46292;-74
2023/02/15 05:45:24;;;;;;;;;86.67;75.67;;;;;6.23;72.62;101710.88;4976507;28;45299;-73
2023/02/15 05:47:50;;;;;;;;;87.33;78.33;;;;;6.16;72.47;101699.56;4984136;28;45220;-73
2023/02/15 05:50:15;;;;;;;;;89.33;82.00;;;;;6.21;72.51;101715.25;4975697;28;45360;-75
2023/02/15 05:52:41;;;;;;;;;86.00;78.67;;;;;6.18;72.77;101703.06;4974340;28;45363;-73
2023/02/15 05:55:08;;;;;;;;;85.33;78.33;;;;;6.16;73.19;101703.94;4975034;28;45566;-74
2023/02/15 05:57:34;;;;;;;;;84.00;74.33;;;;;6.10;72.98;101700.47;4975045;28;45446;-74
2023/02/15 06:00:00;;;;;;;;;88.33;82.00;;;;;6.10;73.45;101700.47;4975452;28;45481;-73
2023/02/15 06:02:25;;;;;;;;;93.67;89.00;;;;;6.01;72.71;101691.78;4974411;28;46742;-74
2023/02/15 06:04:51;;;;;;;;;99.67;89.33;;;;;6.04;73.00;101699.63;4974404;28;45350;-75
2023/02/15 06:07:16;;;;;;;;;90.33;83.67;;;;;5.99;73.52;101691.78;4974391;28;45308;-74
2023/02/15 06:09:41;;;;;;;;;94.00;90.00;;;;;6.05;73.79;101702.25;4975247;28;45576;-74
2023/02/15 06:12:07;;;;;;;;;88.00;85.00;;;;;6.02;73.22;101696.16;4973175;28;47447;-75
2023/02/15 06:14:32;;;;;;;;;95.00;86.67;;;;;6.02;73.39;101701.38;4975467;28;45304;-74
2023/02/15 06:16:57;;;;;;;;;97.00;87.00;;;;;6.01;73.28;101707.47;4974723;28;45286;-73
2023/02/15 06:19:22;;;;;;;;;98.67;89.67;;;;;5.91;73.20;101685.72;4974359;28;45272;-72
2023/02/15 06:21:49;;;;;;;;;94.00;86.67;;;;;5.96;74.11;101694.41;4973837;28;45349;-72
2023/02/15 06:24:14;;;;;;;;;97.67;87.67;;;;;5.91;73.40;101685.72;4973656;28;45339;-73
2023/02/15 06:26:39;;;;;;;;;94.67;82.67;;;;;5.90;73.96;101695.28;4973950;28;45248;-73
2023/02/15 06:29:05;;;;;;;;;90.33;84.67;;;;;5.88;73.70;101699.63;4974348;28;45178;-74
2023/02/15 06:31:30;;;;;;;;;102.00;91.00;;;;;5.73;74.45;101673.56;4973832;28;46573;-74
2023/02/15 06:34:00;;;;;;;;;95.67;91.00;;;;;5.82;73.94;101692.69;4974251;28;45312;-74
2023/02/15 06:36:29;;;;;;;;;98.67;90.33;;;;;5.85;73.83;101704.88;4974011;28;45380;-77
2023/02/15 06:38:56;;;;;;;;;94.00;90.00;;;;;5.84;74.24;101711.84;4974049;28;45431;-73
2023/02/15 06:41:23;;;;;;;;;102.00;96.33;;;;;5.82;73.71;101715.31;4973860;28;45220;-74
2023/02/15 06:43:49;;;;;;;;;97.00;89.00;;;;;5.80;73.95;101701.41;4973713;28;45486;-73
2023/02/15 06:46:14;;;;;;;;;90.00;84.67;;;;;5.78;73.97;101708.38;4974536;28;45411;-75
2023/02/15 06:48:40;;;;;;;;;101.00;86.33;;;;;5.74;74.24;101694.44;4973976;28;45397;-71
2023/02/15 06:51:05;;;;;;;;;96.00;92.00;;;;;5.72;73.89;101695.31;4972265;28;46177;-68
2023/02/15 06:53:30;;;;;;;;;97.33;89.33;;;;;5.67;74.20;101687.50;4973405;28;45469;-72
2023/02/15 06:56:06;;;;;;;;;91.67;83.67;;;;;5.67;74.49;101693.59;4973480;28;45486;-73
2023/02/15 06:58:32;;;;;;;;;90.67;84.00;;;;;5.68;74.00;101699.66;4972582;28;45350;-72
2023/02/15 07:00:58;;;;;;;;;90.67;84.00;;;;;5.62;74.73;101700.56;4972826;28;45382;-72
2023/02/15 07:03:24;;;;;;;;;93.67;90.67;;;;;5.64;74.81;101706.66;4973297;28;45354;-76
2023/02/15 07:05:54;;;;;;;;;95.00;91.33;;;;;5.67;74.62;101714.47;4973414;28;45373;-72
2023/02/15 07:08:20;;;;;;;;;93.33;90.33;;;;;5.66;74.46;101722.31;4974084;28;45346;-71
2023/02/15 07:10:45;;;;;;;;;91.00;85.00;;;;;5.62;74.19;101734.50;4974104;28;46198;-69
2023/02/15 07:13:10;;;;;;;;;96.67;91.00;;;;;5.64;73.93;101745.81;4974385;28;45433;-72
2023/02/15 07:15:36;;;;;;;;;96.00;89.67;;;;;5.64;73.99;101758.88;4972600;28;57264;-73
2023/02/15 07:18:01;;;;;;;;;95.00;90.33;;;;;5.64;74.51;101753.66;4974372;28;45310;-75
2023/02/15 07:20:26;;;;;;;;;101.33;92.67;;;;;5.54;73.65;101734.50;4974154;28;45608;-71
2023/02/15 07:22:52;;;;;;;;;93.33;84.33;;;;;5.64;74.33;101748.41;4975144;28;45383;-71
2023/02/15 07:25:18;;;;;;;;;100.33;93.33;;;;;5.66;74.22;101756.25;4974747;28;46649;-75
2023/02/15 07:27:44;;;;;;;;;97.33;90.33;;;;;5.68;74.50;101750.16;4973931;28;45302;-75
2023/02/15 07:30:13;;;;;;;;;96.67;89.67;;;;;5.60;74.21;101737.97;4974374;28;46208;-68
2023/02/15 07:33:22;;;;;;;;;95.00;85.33;;;;;5.68;74.43;101742.31;4972776;28;45529;-69
2023/02/15 07:35:24;;;;;;;;;97.33;90.67;;;;;5.69;74.51;101743.19;4971265;28;45462;-69
2023/02/15 07:37:49;;;;;;;;;90.33;84.33;;;;;5.78;74.52;101752.75;4971734;28;46287;-71
2023/02/15 07:40:15;;;;;;;;;93.00;87.67;;;;;5.74;73.98;101743.19;4972983;28;52215;-69
2023/02/15 07:42:40;;;;;;;;;106.00;90.00;;;;;5.85;74.42;101757.97;4975835;28;45338;-72
2023/02/15 07:45:06;;;;;;;;;93.00;86.67;;;;;5.87;73.58;101739.69;4975560;28;45478;-72
2023/02/15 07:47:31;;;;;;;;;94.67;91.00;;;;;5.86;74.23;101748.38;4993150;28;45355;-73
2023/02/15 07:49:56;;;;;;;;;97.33;91.33;;;;;5.91;74.78;101757.09;4995001;28;47502;-75
2023/02/15 07:52:22;;;;;;;;;100.33;91.00;;;;;5.98;73.93;101761.41;4984097;28;45378;-73
2023/02/15 07:54:47;;;;;;;;;101.00;98.67;;;;;5.99;73.68;101752.72;4985520;28;45753;-73
2023/02/15 07:57:12;;;;;;;;;97.67;88.33;;;;;6.03;74.42;101756.25;4984504;28;45456;-73
2023/02/15 07:59:38;;;;;;;;;104.33;94.67;;;;;6.01;74.50;101737.09;4974894;28;45482;-76
2023/02/15 08:02:09;;;;;;;;;96.00;89.67;;;;;6.14;73.98;101769.25;4990930;28;45461;-75
2023/02/15 08:04:34;;;;;;;;;97.67;90.67;;;;;6.13;73.39;101754.44;5020855;28;45505;-75
2023/02/15 08:07:00;;;;;;;;;95.67;88.33;;;;;6.14;73.57;101764.91;4986191;28;45335;-77
2023/02/15 08:09:25;;;;;;;;;93.33;90.67;;;;;6.20;73.47;101765.78;5012065;28;47047;-76
2023/02/15 08:11:50;;;;;;;;;101.00;96.33;;;;;6.16;73.96;101761.44;4982025;28;45352;-76
2023/02/15 08:14:19;;;;;;;;;103.67;94.00;;;;;6.22;74.46;101764.88;5015989;28;45326;-75
2023/02/15 08:16:52;;;;;;;;;109.00;103.00;;;;;6.27;74.55;101762.25;4983503;28;45594;-75
2023/02/15 08:19:25;;;;;;;;;101.33;95.67;;;;;6.31;73.39;101757.88;4986295;28;45562;-75
2023/02/15 08:21:53;;;;;;;;;100.33;96.67;;;;;6.27;73.43;101744.81;4978240;28;45656;-67
2023/02/15 08:24:20;;;;;;;;;100.00;97.00;;;;;6.31;73.82;101745.69;4992549;28;45463;-64
2023/02/15 08:26:47;;;;;;;;;103.67;94.67;;;;;6.37;73.07;101756.13;4983216;28;45413;-68
2023/02/15 08:29:14;;;;;;;;;99.00;91.67;;;;;6.45;73.03;101763.06;4988834;28;47625;-73
2023/02/15 08:31:41;;;;;;;;;94.33;92.33;;;;;6.46;73.36;101764.81;4979480;28;45506;-69
2023/02/15 08:34:11;;;;;;;;;99.33;91.33;;;;;6.49;72.75;101770.03;4984770;28;45897;-65
2023/02/15 08:36:38;;;;;;;;;102.00;97.00;;;;;6.50;73.21;101772.66;4987195;28;45546;-69
2023/02/15 08:39:05;;;;;;;;;105.67;99.33;;;;;6.55;73.03;101772.59;5052898;28;46224;-68
2023/02/15 08:41:36;;;;;;;;;103.00;92.67;;;;;6.56;72.81;101766.50;4979099;28;45573;-69
2023/02/15 08:44:04;;;;;;;;;104.00;96.33;;;;;6.44;72.78;101736.06;5005043;28;45436;-66
2023/02/15 08:46:32;;;;;;;;;105.33;93.67;;;;;6.65;72.34;101760.38;4982795;28;45524;-67
2023/02/15 08:48:58;;;;;;;;;98.67;95.00;;;;;6.70;71.68;101764.69;4980618;28;46623;-69
2023/02/15 08:51:26;;;;;;;;;96.33;91.00;;;;;6.73;72.15;101763.81;4993383;28;45411;-69
2023/02/15 08:53:53;;;;;;;;;102.67;95.67;;;;;6.73;72.30;101750.75;4993247;28;45406;-64
2023/02/15 08:56:21;;;;;;;;;110.00;101.33;;;;;6.77;72.46;101754.19;4994645;28;45477;-70
2023/02/15 08:58:47;;;;;;;;;107.00;95.33;;;;;6.78;71.91;101748.09;4994390;28;46153;-71
2023/02/15 09:01:20;;;;;;;;;109.00;100.67;;;;;6.80;72.61;101754.19;4992887;27;45323;-69
2023/02/15 09:03:47;;;;;;;;;101.33;96.67;;;;;6.85;72.47;101749.78;4994593;28;45278;-68
2023/02/15 09:06:13;;;;;;;;;109.75;103.25;;;;;6.91;71.80;101748.91;4994080;27;45479;-66
2023/02/15 09:08:39;;;;;;;;;103.00;100.67;;;;;6.91;71.48;101749.78;4992859;28;45484;-69
2023/02/15 09:11:05;;;;;;;;;100.00;97.33;;;;;6.94;71.27;101751.50;4994007;27;45211;-69
2023/02/15 09:13:30;;;;;;;;;102.33;97.00;;;;;6.97;71.78;101748.84;4994071;28;45184;-68
2023/02/15 09:16:04;;;;;;;;;95.67;92.67;;;;;6.98;71.41;101751.47;4994434;27;45786;-69
2023/02/15 09:18:33;;;;;;;;;99.33;96.00;;;;;7.03;71.69;101746.19;4995476;27;45376;-67
2023/02/15 09:21:08;;;;;;;;;93.25;92.75;;;;;7.09;71.72;101740.06;4994525;28;45395;-65
2023/02/15 09:23:34;;;;;;;;;98.67;92.00;;;;;7.12;71.44;101740.91;4993287;28;45451;-66
2023/02/15 09:26:08;;;;;;;;;102.67;98.67;;;;;7.19;71.58;101740.84;4994250;28;45339;-65
2023/02/15 09:28:34;;;;;;;;;107.67;101.67;;;;;7.25;70.38;101746.03;4994083;28;46635;-65
2023/02/15 09:31:17;;;;;;;;;98.67;94.33;;;;;7.26;70.83;101742.53;4992624;28;46119;-66
2023/02/15 09:33:45;;;;;;;;;100.67;95.00;;;;;7.35;70.89;101752.09;4994555;28;45335;-67
2023/02/15 09:36:19;;;;;;;;;99.67;94.67;;;;;7.40;70.48;101755.53;4994217;28;45355;-66
2023/02/15 09:38:46;;;;;;;;;97.33;92.00;;;;;7.48;70.38;101768.59;4993935;27;47572;-65
2023/02/15 09:41:49;;;;;;;;;101.33;98.33;;;;;7.55;70.47;101772.88;4994614;27;45390;-64
2023/02/15 09:44:33;;;;;;;;;97.67;94.67;;;;;7.63;69.88;101783.28;4981209;27;45358;-67
2023/02/15 09:47:04;;;;;;;;;104.25;99.00;;;;;7.69;69.67;101780.59;4994190;27;45349;-66
2023/02/15 09:49:29;;;;;;;;;107.00;99.67;;;;;7.74;69.74;101778.81;4993883;28;45646;-67
2023/02/15 09:52:14;;;;;;;;;100.75;98.50;;;;;7.76;69.18;101771.81;4994220;28;45287;-70
2023/02/15 09:54:51;;;;;;;;;105.50;101.75;;;;;7.86;69.12;101786.56;4995100;28;45349;-68
2023/02/15 09:57:27;;;;;;;;;102.00;97.67;;;;;7.93;68.62;101791.72;4994247;28;45336;-70
2023/02/15 10:00:07;;;;;;;;;100.33;95.33;;;;;7.99;68.51;101786.47;4993593;28;46260;-69
2023/02/15 10:03:05;;;;;;;;;103.00;94.33;;;;;8.06;69.17;101788.13;4993663;28;45413;-68
2023/02/15 10:05:43;;;;;;;;;95.33;87.33;;;;;8.10;68.29;101775.84;4993821;28;45329;-66
2023/02/15 10:08:29;;;;;;;;;106.50;102.50;;;;;8.20;68.00;101780.09;4994703;28;45342;-64
2023/02/15 10:11:38;;;;;;;;;93.00;89.00;;;;;8.27;68.63;101783.53;4993233;28;46011;-65
2023/02/15 10:14:08;;;;;;;;;98.67;92.00;;;;;8.31;68.15;101777.38;4993060;27;45216;-66
2023/02/15 10:17:02;;;;;;;;;101.25;94.25;;;;;8.40;67.67;101772.03;4993627;28;45300;-68
2023/02/15 10:19:57;;;;;;;;;93.33;93.00;;;;;8.51;67.38;101778.94;4993728;28;45182;-67
2023/02/15 10:22:38;;;;;;;;;100.67;91.33;;;;;8.61;67.16;101784.06;4993343;28;47310;-69
2023/02/15 10:25:31;;;;;;;;;98.67;92.00;;;;;8.69;67.00;101783.09;4991517;27;45407;-68
2023/02/15 10:28:20;;;;;;;;;97.33;91.33;;;;;8.79;66.37;101794.31;4993568;28;45466;-68
2023/02/15 10:30:51;;;;;;;;;101.00;94.00;;;;;8.86;66.24;101786.34;4993342;28;45231;-69
2023/02/15 10:33:40;;;;;;;;;99.33;95.00;;;;;8.91;66.37;101787.16;4991797;28;46084;-70
2023/02/15 10:36:05;;;;;;;;;101.67;96.00;;;;;8.95;65.61;101787.09;4992480;28;45301;-68
2023/02/15 10:39:17;;;;;;;;;101.67;98.33;;;;;8.95;65.76;101779.22;4993092;27;45331;-70
2023/02/15 10:42:12;;;;;;;;;97.67;96.33;;;;;8.99;65.74;101784.41;4956095;27;45568;-69
2023/02/15 10:44:43;;;;;;;;;102.00;98.00;;;;;9.09;65.38;101789.53;4992562;28;46975;-69
2023/02/15 10:47:46;;;;;;;;;109.00;103.33;;;;;9.14;65.24;101791.19;4992571;28;45447;-68
2023/02/15 10:50:17;;;;;;;;;101.00;96.67;;;;;9.17;65.29;101780.66;4991265;28;45253;-69
2023/02/15 10:52:54;;;;;;;;;100.67;93.67;;;;;9.18;64.92;101784.16;4993825;28;45401;-69
2023/02/15 10:55:57;;;;;;;;;93.33;86.33;;;;;9.23;64.83;101782.31;4993177;28;46231;-70
2023/02/15 10:58:26;;;;;;;;;102.67;95.00;;;;;9.29;64.78;101770.84;4932046;28;45417;-70
2023/02/15 11:01:07;;;;;;;;;96.33;89.00;;;;;9.28;65.08;101762.13;4931979;28;45350;-68
2023/02/15 11:03:48;;;;;;;;;99.67;90.00;;;;;9.40;64.44;101768.91;4958941;28;45540;-69
2023/02/15 11:06:22;;;;;;;;;108.67;101.67;;;;;9.40;64.16;101761.03;4993683;28;46893;-69
2023/02/15 11:08:53;;;;;;;;;95.67;90.67;;;;;9.40;64.14;101761.03;4993276;28;45443;-70
2023/02/15 11:11:28;;;;;;;;;96.67;91.00;;;;;9.39;64.09;101768.97;4992569;28;45178;-67
2023/02/15 11:14:00;;;;;;;;;98.33;93.67;;;;;9.39;64.02;101772.44;4992742;28;45454;-68
2023/02/15 11:16:33;;;;;;;;;100.67;95.33;;;;;9.40;63.98;101766.28;4994381;28;45710;-69
2023/02/15 11:19:06;;;;;;;;;89.33;88.67;;;;;9.48;63.89;101776.69;4994895;28;45431;-69
2023/02/15 11:21:43;;;;;;;;;98.00;94.00;;;;;9.53;63.88;101774.84;4995203;27;45295;-68
2023/02/15 11:24:20;;;;;;;;;109.67;103.33;;;;;9.55;63.54;101761.69;4994545;28;45248;-71
2023/02/15 11:26:56;;;;;;;;;94.00;88.00;;;;;9.61;63.60;101762.44;4992362;28;47040;-69
2023/02/15 11:29:25;;;;;;;;;100.67;95.33;;;;;9.69;63.64;101764.06;4993213;28;45527;-69
2023/02/15 11:32:01;;;;;;;;;96.00;92.33;;;;;9.75;62.94;101756.97;4991548;28;45332;-65
2023/02/15 11:34:37;;;;;;;;;112.00;102.75;;;;;9.83;63.27;101758.59;4992900;28;45428;-68
2023/02/15 11:37:11;;;;;;;;;109.00;97.33;;;;;9.93;63.43;101752.25;4992542;28;45260;-71
2023/02/15 11:39:38;;;;;;;;;104.00;96.33;;;;;10.00;62.73;101747.75;4991092;28;45943;-72
2023/02/15 11:42:16;;;;;;;;;94.67;90.33;;;;;10.11;62.37;101755.44;4984449;28;45296;-69
2023/02/15 11:44:59;;;;;;;;;99.00;93.67;;;;;10.13;62.59;101757.16;4971739;28;45401;-72
2023/02/15 11:47:24;;;;;;;;;100.00;94.67;;;;;10.21;62.20;101754.34;4974697;28;45697;-72
2023/02/15 11:49:49;;;;;;;;;99.00;94.67;;;;;10.30;61.86;101754.16;4976123;28;45538;-70
2023/02/15 11:52:18;;;;;;;;;91.33;86.00;;;;;10.38;61.77;101756.66;4975952;28;45285;-70
2023/02/15 11:54:49;;;;;;;;;104.33;96.67;;;;;10.46;61.39;101754.75;4976087;28;45409;-70